LLBG/TLV METAR and TAF weather

Enter ICAO airport designator
Station Type Date Time Source
LLBG METAR 2022/06/28 14:20 UTC NOAA

LLBG 281420Z 32011KT CAVOK 29/20 Q1006 NOSIG


Station Type Date Time Source
LLBG Decoded METAR 2022/06/28 14:20 UTC NOAA

Ben-Gurion International Airport, Israel (LLBG) 32-00N 034-54E 49M
Jun 28, 2022 - 10:20 AM EDT / 2022.06.28 1420 UTC
Wind: from the NW (320 degrees) at 13 MPH (11 KT):0
Visibility: greater than 7 mile(s):0
Temperature: 84 F (29 C)
Dew Point: 68 F (20 C)
Relative Humidity: 58%
Pressure (altimeter): 29.71 in. Hg (1006 hPa)
ob: LLBG 281420Z 32011KT CAVOK 29/20 Q1006 NOSIG
cycle: 14

Station Type Date Time Source
LLBG TAF 2022/06/28 12:06 UTC NOAA

TAF TAF LLBG 281102Z 2812/2912 31010KT 9999 FEW030
BECMG 2816/2818 VRB04KT 9999 FEW018 PROB40
TEMPO 2822/2905 15004KT SCT015
BECMG 2907/2909 31010KT 9999 FEW030 TX31/2812Z TN22/2904Z

Example: see airport list